Time;durP1;ratioP1;P1;durP2;ratioP2;P2;SDS_P1;SDS_P2;PMS_P1;PMS_P2;Temp;Humidity;BMP_temperature;BMP_pressure;BME280_temperature;BME280_humidity;BME280_pressure;Samples;Min_cycle;Max_cycle;Signal;HPM_P1;HPM_P2
2021/07/18 00:02:09;;;;;;;33.42;23.48;;;16.50;99.90;;;;;;4991288;28;20030;-77
2021/07/18 00:04:34;;;;;;;32.67;22.63;;;16.70;99.90;;;;;;4969993;28;20054;-77
2021/07/18 00:07:00;;;;;;;38.38;24.67;;;15.90;99.90;;;;;;4953951;28;20404;-77
2021/07/18 00:09:26;;;;;;;32.42;23.55;;;16.10;99.90;;;;;;4953049;29;20416;-77
2021/07/18 00:11:51;;;;;;;32.85;21.55;;;16.10;99.90;;;;;;4936778;29;20039;-77
2021/07/18 00:14:17;;;;;;;35.30;23.27;;;16.10;99.90;;;;;;4953997;29;20063;-77
2021/07/18 00:16:43;;;;;;;31.95;21.88;;;16.00;99.90;;;;;;4964598;28;20783;-77
2021/07/18 00:19:09;;;;;;;32.25;21.95;;;17.10;99.90;;;;;;4972320;28;20023;-77
2021/07/18 00:21:35;;;;;;;34.42;23.02;;;16.80;99.90;;;;;;4971568;28;20023;-77
2021/07/18 00:24:01;;;;;;;31.67;22.77;;;16.00;99.90;;;;;;4974779;28;20142;-77
2021/07/18 00:26:27;;;;;;;30.08;22.13;;;16.00;99.90;;;;;;4982268;28;20050;-77
2021/07/18 00:28:53;;;;;;;33.40;22.83;;;16.00;99.90;;;;;;4969986;28;20512;-77
2021/07/18 00:31:18;;;;;;;32.15;22.88;;;16.40;99.90;;;;;;4957404;29;20067;-77
2021/07/18 00:33:44;;;;;;;28.17;21.90;;;16.50;99.90;;;;;;4957419;29;20078;-77
2021/07/18 00:36:09;;;;;;;29.35;21.55;;;15.70;99.90;;;;;;4940547;29;20050;-77
2021/07/18 00:38:35;;;;;;;31.20;21.92;;;15.70;99.90;;;;;;4940095;29;20082;-77
2021/07/18 00:41:01;;;;;;;28.25;20.45;;;16.30;99.90;;;;;;4971064;28;20031;-77
2021/07/18 00:43:26;;;;;;;30.52;21.73;;;15.90;99.90;;;;;;4976717;28;20487;-77
2021/07/18 00:45:56;;;;;;;32.50;20.98;;;15.70;99.90;;;;;;4976718;28;20778;-77
2021/07/18 00:48:22;;;;;;;25.77;19.88;;;15.80;99.90;;;;;;4976733;28;20124;-77
2021/07/18 00:50:47;;;;;;;27.58;20.02;;;15.60;99.90;;;;;;4975045;28;20500;-77
2021/07/18 00:53:13;;;;;;;25.30;20.55;;;15.70;99.90;;;;;;4958537;28;20547;-77
2021/07/18 00:55:43;;;;;;;26.52;19.42;;;15.60;99.90;;;;;;4928091;28;20023;-77
2021/07/18 00:58:08;;;;;;;31.40;19.08;;;15.30;99.90;;;;;;4996192;28;20030;-77
2021/07/18 01:00:34;;;;;;;26.40;19.95;;;15.50;99.90;;;;;;4944760;28;20047;-77
2021/07/18 01:03:01;;;;;;;23.77;19.65;;;15.10;99.90;;;;;;4956822;28;20492;-77
2021/07/18 01:05:26;;;;;;;28.13;20.65;;;16.80;99.90;;;;;;4940798;29;20086;-77
2021/07/18 01:07:52;;;;;;;30.10;22.40;;;16.00;99.90;;;;;;4958354;29;20031;-77
2021/07/18 01:10:18;;;;;;;32.40;22.60;;;15.30;99.90;;;;;;4957644;29;20031;-77
2021/07/18 01:12:44;;;;;;;35.22;24.88;;;15.10;99.90;;;;;;4956877;29;20035;-77
2021/07/18 01:15:10;;;;;;;31.52;23.83;;;15.90;99.90;;;;;;4959671;28;20476;-77
2021/07/18 01:17:37;;;;;;;31.98;22.33;;;15.30;99.90;;;;;;4975786;28;20038;-77
2021/07/18 01:20:04;;;;;;;29.80;23.02;;;16.00;99.90;;;;;;4975233;28;20035;-77
2021/07/18 01:22:31;;;;;;;29.83;22.27;;;15.00;99.90;;;;;;4976057;28;20027;-77
2021/07/18 01:24:57;;;;;;;29.55;22.10;;;15.20;99.90;;;;;;4975905;28;20030;-77
2021/07/18 01:27:22;;;;;;;30.17;21.42;;;15.20;99.90;;;;;;4966820;28;20039;-77
2021/07/18 01:29:48;;;;;;;29.02;20.80;;;15.00;99.90;;;;;;4974308;28;20125;-76
2021/07/18 01:32:14;;;;;;;35.67;25.08;;;15.10;99.90;;;;;;4975675;28;20054;-76
2021/07/18 01:34:40;;;;;;;33.58;22.98;;;15.10;99.90;;;;;;4975736;28;20034;-77
2021/07/18 01:37:06;;;;;;;34.35;24.10;;;15.00;99.90;;;;;;4975675;28;20035;-77
2021/07/18 01:39:31;;;;;;;37.42;24.88;;;14.90;99.90;;;;;;4973536;28;20544;-77
2021/07/18 01:41:58;;;;;;;35.33;24.17;;;14.70;99.90;;;;;;4975565;28;20081;-77
2021/07/18 01:44:24;;;;;;;34.28;25.05;;;14.90;99.90;;;;;;4962011;28;20031;-77
2021/07/18 01:46:51;;;;;;;32.30;22.10;;;14.90;99.90;;;;;;4938531;29;20027;-77
2021/07/18 01:49:17;;;;;;;39.03;23.75;;;14.90;99.90;;;;;;4938720;29;20036;-77
2021/07/18 01:51:43;;;;;;;29.83;21.75;;;14.90;99.90;;;;;;4948639;28;20117;-77
2021/07/18 01:54:10;;;;;;;28.13;20.67;;;14.50;99.90;;;;;;4975642;28;20606;-77
2021/07/18 01:56:36;;;;;;;28.10;19.30;;;15.10;99.90;;;;;;4989078;28;20033;-77
2021/07/18 01:59:02;;;;;;;24.50;18.75;;;14.40;99.90;;;;;;5001091;28;20450;-77
2021/07/18 02:01:29;;;;;;;31.58;19.65;;;14.40;99.90;;;;;;5002944;28;20368;-77
2021/07/18 02:03:55;;;;;;;25.88;19.83;;;14.50;99.90;;;;;;4973567;28;20050;-77
2021/07/18 02:06:22;;;;;;;23.45;19.40;;;14.50;99.90;;;;;;4960976;29;20027;-77
2021/07/18 02:08:52;;;;;;;26.13;20.95;;;14.50;99.90;;;;;;4960551;29;20043;-77
2021/07/18 02:11:19;;;;;;;34.72;22.33;;;14.30;99.90;;;;;;4959527;29;20083;-77
2021/07/18 02:13:56;;;;;;;27.98;21.65;;;14.50;99.90;;;;;;4961940;28;20039;-77
2021/07/18 02:16:22;;;;;;;26.52;21.00;;;14.50;99.90;;;;;;4978763;28;20029;-77
2021/07/18 02:18:48;;;;;;;26.90;19.77;;;14.90;99.90;;;;;;4977128;28;20031;-77
2021/07/18 02:21:16;;;;;;;26.58;18.75;;;14.20;99.90;;;;;;4975356;28;20037;-77
2021/07/18 02:23:42;;;;;;;23.55;18.73;;;14.50;99.90;;;;;;4973777;28;20039;-77
2021/07/18 02:26:08;;;;;;;25.73;19.83;;;14.40;99.90;;;;;;4949782;28;20071;-77
2021/07/18 02:28:33;;;;;;;22.92;20.05;;;14.30;99.90;;;;;;4994231;28;20077;-77
2021/07/18 02:31:04;;;;;;;22.85;18.70;;;14.20;99.90;;;;;;4989562;28;20023;-77
2021/07/18 02:33:30;;;;;;;27.67;18.33;;;14.40;99.90;;;;;;4974466;28;20034;-77
2021/07/18 02:35:55;;;;;;;23.17;18.42;;;15.10;99.90;;;;;;4973720;28;20022;-77
2021/07/18 02:38:21;;;;;;;25.88;18.17;;;14.50;99.90;;;;;;4950750;28;20035;-77
2021/07/18 02:40:46;;;;;;;23.90;18.25;;;14.30;99.90;;;;;;4974997;28;20042;-77
2021/07/18 02:43:12;;;;;;;24.52;17.40;;;14.20;99.90;;;;;;4959988;28;20054;-77
2021/07/18 02:45:38;;;;;;;22.65;17.13;;;15.70;99.90;;;;;;4975899;28;20035;-76
2021/07/18 02:48:03;;;;;;;24.52;17.90;;;14.00;99.90;;;;;;4971576;28;20102;-76
2021/07/18 02:50:29;;;;;;;24.13;17.33;;;14.00;99.90;;;;;;4939739;28;20038;-77
2021/07/18 02:52:55;;;;;;;25.58;18.45;;;14.00;99.90;;;;;;4942976;29;20593;-77
2021/07/18 02:55:21;;;;;;;27.17;19.40;;;14.20;99.90;;;;;;4960785;29;20551;-76
2021/07/18 02:57:47;;;;;;;23.02;18.10;;;14.50;99.90;;;;;;4994517;28;20018;-76
2021/07/18 03:00:15;;;;;;;20.30;16.10;;;15.20;99.90;;;;;;4970556;28;20086;-76
2021/07/18 03:02:42;;;;;;;22.92;18.42;;;14.00;99.90;;;;;;4956971;29;20038;-77
2021/07/18 03:05:12;;;;;;;24.63;15.95;;;14.00;99.90;;;;;;4957978;29;20042;-77
2021/07/18 03:07:39;;;;;;;20.10;15.93;;;13.90;99.90;;;;;;4958728;28;20023;-77
2021/07/18 03:10:06;;;;;;;24.85;16.17;;;14.00;99.90;;;;;;4968119;28;20515;-77
2021/07/18 03:12:32;;;;;;;28.33;18.67;;;13.80;99.90;;;;;;4976961;28;20034;-77
2021/07/18 03:15:03;;;;;;;21.40;16.65;;;13.90;99.90;;;;;;4976749;28;20041;-76
2021/07/18 03:17:28;;;;;;;25.15;17.35;;;14.20;99.90;;;;;;4974010;28;20023;-77
2021/07/18 03:19:54;;;;;;;28.48;18.30;;;14.00;99.90;;;;;;4972396;28;20041;-77
2021/07/18 03:22:20;;;;;;;23.50;17.08;;;14.10;99.90;;;;;;4960439;28;20488;-77
2021/07/18 03:24:47;;;;;;;24.45;16.45;;;14.10;99.90;;;;;;4954729;29;20094;-77
2021/07/18 03:27:13;;;;;;;26.30;16.83;;;14.10;99.90;;;;;;4983321;28;20104;-76
2021/07/18 03:29:38;;;;;;;24.25;15.75;;;14.30;99.90;;;;;;4992277;28;20495;-77
2021/07/18 03:32:04;;;;;;;21.63;15.60;;;14.90;99.90;;;;;;4952895;28;20042;-77
2021/07/18 03:34:30;;;;;;;16.80;14.25;;;14.00;99.90;;;;;;4957998;28;20031;-77
2021/07/18 03:36:56;;;;;;;18.35;14.15;;;14.60;99.90;;;;;;4937998;29;20042;-77
2021/07/18 03:39:21;;;;;;;15.90;12.38;;;13.80;99.90;;;;;;4938575;29;20086;-77
2021/07/18 03:41:47;;;;;;;18.70;14.43;;;12.00;99.90;;;;;;4957151;29;20034;-77
2021/07/18 03:44:13;;;;;;;17.77;13.48;;;13.70;99.90;;;;;;4954652;29;20392;-77
2021/07/18 03:46:38;;;;;;;20.83;14.88;;;14.00;99.90;;;;;;4970461;28;20035;-77
2021/07/18 03:49:04;;;;;;;28.08;15.63;;;14.50;99.90;;;;;;4971834;28;20043;-77
2021/07/18 03:51:30;;;;;;;19.33;14.63;;;14.10;99.90;;;;;;4973021;28;20023;-77
2021/07/18 03:53:56;;;;;;;24.40;17.00;;;14.00;99.90;;;;;;4973325;28;20050;-77
2021/07/18 03:56:22;;;;;;;18.70;12.40;;;14.00;99.90;;;;;;4976488;28;20029;-77
2021/07/18 03:58:49;;;;;;;18.80;13.82;;;13.70;99.90;;;;;;4953600;29;20027;-77
2021/07/18 04:01:15;;;;;;;15.57;11.55;;;14.80;99.90;;;;;;4954325;29;20051;-77
2021/07/18 04:03:41;;;;;;;15.43;11.00;;;13.90;99.90;;;;;;4949723;29;20103;-77
2021/07/18 04:06:07;;;;;;;15.40;11.18;;;14.70;99.90;;;;;;4965003;28;20031;-77
2021/07/18 04:08:33;;;;;;;19.17;10.77;;;13.50;99.90;;;;;;4960012;28;20057;-77
2021/07/18 04:10:58;;;;;;;16.83;11.38;;;14.20;99.90;;;;;;4958645;29;20457;-77
2021/07/18 04:13:24;;;;;;;15.93;12.95;;;13.70;99.90;;;;;;4957716;29;20496;-77
2021/07/18 04:15:49;;;;;;;18.10;12.50;;;14.10;99.90;;;;;;4957452;28;20070;-77
2021/07/18 04:18:15;;;;;;;19.75;13.18;;;13.60;99.90;;;;;;4957389;29;20058;-77
2021/07/18 04:20:41;;;;;;;21.95;13.02;;;13.80;99.90;;;;;;4975861;28;20138;-77
2021/07/18 04:23:08;;;;;;;17.10;12.27;;;14.90;99.90;;;;;;4977104;28;20500;-77
2021/07/18 04:25:34;;;;;;;18.40;13.32;;;13.90;99.90;;;;;;4976978;28;20027;-77
2021/07/18 04:28:00;;;;;;;18.85;13.27;;;13.90;99.90;;;;;;4995423;28;20038;-77
2021/07/18 04:30:25;;;;;;;20.20;13.77;;;13.80;99.90;;;;;;4994746;28;20034;-77
2021/07/18 04:32:51;;;;;;;22.65;13.70;;;13.60;99.90;;;;;;4956604;28;20035;-77
2021/07/18 04:35:16;;;;;;;23.05;14.65;;;13.70;99.90;;;;;;4957027;29;20082;-77
2021/07/18 04:37:42;;;;;;;23.65;15.00;;;13.50;99.90;;;;;;4956736;29;20027;-77
2021/07/18 04:40:11;;;;;;;24.38;15.00;;;13.70;99.90;;;;;;4938776;29;20035;-77
2021/07/18 04:42:38;;;;;;;20.58;14.27;;;13.60;99.90;;;;;;4970699;28;20076;-77
2021/07/18 04:45:04;;;;;;;22.45;15.27;;;13.80;99.90;;;;;;4957459;28;20038;-77
2021/07/18 04:47:30;;;;;;;24.50;15.18;;;13.70;99.90;;;;;;4973680;28;20050;-77
2021/07/18 04:49:55;;;;;;;23.17;15.80;;;14.10;99.90;;;;;;4973758;28;20069;-76
2021/07/18 04:52:21;;;;;;;23.48;15.65;;;14.20;99.90;;;;;;4975196;28;20437;-77
2021/07/18 04:54:46;;;;;;;26.77;14.82;;;14.00;99.90;;;;;;4959535;28;20032;-77
2021/07/18 04:57:12;;;;;;;20.55;13.95;;;14.10;99.90;;;;;;4956412;29;20087;-77
2021/07/18 04:59:38;;;;;;;20.88;12.60;;;15.40;99.90;;;;;;4956204;29;20046;-77
2021/07/18 05:02:04;;;;;;;17.35;11.80;;;14.50;99.90;;;;;;4954926;28;20035;-77
2021/07/18 05:04:30;;;;;;;18.80;11.25;;;14.40;99.90;;;;;;4953440;29;20046;-77
2021/07/18 05:06:55;;;;;;;18.02;10.95;;;14.50;99.90;;;;;;4970021;28;20031;-77
2021/07/18 05:09:21;;;;;;;16.25;10.85;;;14.50;99.90;;;;;;4971555;28;20035;-77
2021/07/18 05:11:46;;;;;;;14.75;9.70;;;14.50;99.90;;;;;;4972136;28;20031;-77
2021/07/18 05:14:12;;;;;;;14.82;9.68;;;16.50;99.90;;;;;;4973456;28;20030;-77
2021/07/18 05:16:38;;;;;;;13.77;9.18;;;15.80;99.90;;;;;;4975425;28;20027;-77
2021/07/18 05:19:04;;;;;;;16.48;8.77;;;14.90;99.90;;;;;;4975917;28;20038;-77
2021/07/18 05:21:29;;;;;;;17.42;9.73;;;15.50;99.90;;;;;;4991469;28;20110;-77
2021/07/18 05:23:55;;;;;;;17.45;9.25;;;14.70;99.90;;;;;;4968993;28;20101;-77
2021/07/18 05:26:21;;;;;;;12.43;8.60;;;15.10;99.90;;;;;;4976370;28;20069;-77
2021/07/18 05:28:47;;;;;;;14.50;8.25;;;16.10;99.90;;;;;;4975947;28;20023;-77
2021/07/18 05:31:13;;;;;;;11.05;8.18;;;15.00;99.90;;;;;;4961390;28;20132;-77
2021/07/18 05:33:39;;;;;;;18.75;9.52;;;16.00;99.90;;;;;;4975949;28;20027;-77
2021/07/18 05:36:08;;;;;;;9.43;6.65;;;15.50;99.90;;;;;;4975955;28;20039;-77
2021/07/18 05:38:36;;;;;;;13.65;6.88;;;15.70;99.90;;;;;;4976422;28;20057;-77
2021/07/18 05:41:02;;;;;;;9.68;5.43;;;15.30;99.90;;;;;;4975477;28;20030;-77
2021/07/18 05:43:27;;;;;;;9.75;6.25;;;15.30;99.90;;;;;;4975638;28;20113;-77
2021/07/18 05:45:53;;;;;;;9.63;5.10;;;15.40;99.90;;;;;;4970561;28;20499;-77
2021/07/18 05:48:23;;;;;;;7.88;4.88;;;15.70;99.90;;;;;;4975443;28;20424;-77
2021/07/18 05:50:49;;;;;;;7.43;4.78;;;15.80;99.90;;;;;;4975564;28;20059;-77
2021/07/18 05:53:15;;;;;;;8.38;4.85;;;15.70;99.90;;;;;;4958036;28;20492;-77
2021/07/18 05:55:41;;;;;;;8.90;3.78;;;15.80;99.90;;;;;;4958003;28;20066;-77
2021/07/18 05:58:06;;;;;;;8.73;3.47;;;16.00;99.90;;;;;;4956324;29;20031;-77
2021/07/18 06:00:32;;;;;;;3.92;3.20;;;16.80;99.90;;;;;;4955240;29;20041;-77
2021/07/18 06:02:57;;;;;;;5.40;2.72;;;16.10;99.90;;;;;;4938845;29;20150;-77
2021/07/18 06:05:23;;;;;;;5.88;2.97;;;16.80;99.90;;;;;;4942761;28;20031;-77
2021/07/18 06:07:49;;;;;;;6.50;2.97;;;16.70;99.90;;;;;;4974168;28;20030;-77
2021/07/18 06:10:14;;;;;;;5.75;2.80;;;16.70;99.90;;;;;;4975278;28;20427;-77
2021/07/18 06:12:40;;;;;;;5.07;2.38;;;16.60;99.90;;;;;;4974958;28;20073;-77
2021/07/18 06:15:06;;;;;;;8.70;2.60;;;16.80;99.90;;;;;;4974671;28;20033;-77
2021/07/18 06:17:32;;;;;;;6.40;2.10;;;16.90;99.90;;;;;;4974947;28;20050;-77
2021/07/18 06:19:58;;;;;;;3.63;2.20;;;17.20;99.90;;;;;;4968921;28;20027;-77
2021/07/18 06:22:24;;;;;;;9.40;1.98;;;18.30;99.90;;;;;;4974072;28;20038;-77
2021/07/18 06:24:50;;;;;;;4.68;2.17;;;17.20;99.90;;;;;;4975240;28;20050;-77
2021/07/18 06:27:15;;;;;;;6.60;1.90;;;17.40;99.90;;;;;;4946682;28;20032;-78
2021/07/18 06:29:41;;;;;;;4.60;2.28;;;17.60;99.90;;;;;;4967183;28;20060;-78
2021/07/18 06:32:07;;;;;;;6.22;2.10;;;17.60;99.90;;;;;;4973514;29;20036;-78
2021/07/18 06:34:32;;;;;;;4.20;1.83;;;17.70;99.90;;;;;;4972809;29;20028;-79
2021/07/18 06:36:58;;;;;;;5.50;2.08;;;17.80;99.90;;;;;;4971623;29;20031;-78
2021/07/18 06:39:24;;;;;;;4.43;1.83;;;18.00;99.90;;;;;;5003834;28;20033;-78
2021/07/18 06:41:49;;;;;;;8.13;3.58;;;18.10;99.90;;;;;;5006913;28;20094;-78
2021/07/18 06:44:15;;;;;;;4.80;1.77;;;18.20;99.90;;;;;;4980933;28;20075;-77
2021/07/18 06:46:41;;;;;;;2.85;1.50;;;18.40;99.90;;;;;;4978550;28;20027;-77
2021/07/18 06:49:06;;;;;;;4.30;1.63;;;18.60;99.90;;;;;;4978302;28;20506;-78
2021/07/18 06:51:33;;;;;;;4.53;1.52;;;18.90;99.90;;;;;;4963744;28;20030;-77
2021/07/18 06:53:59;;;;;;;3.05;1.27;;;18.80;99.90;;;;;;4984562;28;20026;-76
2021/07/18 06:56:24;;;;;;;3.92;1.45;;;18.80;99.90;;;;;;4955530;29;20027;-76
2021/07/18 06:58:50;;;;;;;2.92;1.50;;;19.20;99.90;;;;;;4954956;28;20529;-76
2021/07/18 07:01:15;;;;;;;2.80;1.30;;;19.10;99.90;;;;;;4972329;28;20035;-76
2021/07/18 07:03:41;;;;;;;4.05;1.83;;;19.30;99.90;;;;;;4957664;28;20039;-76
2021/07/18 07:06:07;;;;;;;4.13;1.60;;;19.40;99.90;;;;;;4940355;28;20027;-76
2021/07/18 07:08:32;;;;;;;5.45;1.30;;;19.50;99.90;;;;;;4973810;28;20503;-76
2021/07/18 07:10:58;;;;;;;2.53;1.05;;;19.90;99.90;;;;;;4973434;28;20030;-77
2021/07/18 07:13:24;;;;;;;4.95;1.30;;;20.00;99.90;;;;;;4980787;28;20037;-76
2021/07/18 07:15:49;;;;;;;7.43;1.33;;;19.90;99.90;;;;;;4979451;28;20503;-76
2021/07/18 07:18:15;;;;;;;3.50;1.58;;;20.10;99.90;;;;;;4961485;28;20103;-77
2021/07/18 07:20:40;;;;;;;4.95;1.45;;;20.20;99.90;;;;;;4973419;28;20023;-78
2021/07/18 07:23:07;;;;;;;3.33;1.20;;;20.30;99.90;;;;;;4978900;28;20035;-82
2021/07/18 07:25:32;;;;;;;5.57;1.30;;;20.40;99.90;;;;;;4990621;28;20029;-77
2021/07/18 07:27:58;;;;;;;2.45;1.08;;;20.60;99.90;;;;;;4976549;28;20031;-77
2021/07/18 07:30:24;;;;;;;4.05;1.60;;;20.50;99.90;;;;;;4935872;29;20042;-75
2021/07/18 07:32:49;;;;;;;6.35;1.70;;;20.60;99.90;;;;;;4936893;29;20496;-75
2021/07/18 07:35:15;;;;;;;3.92;1.40;;;20.60;99.90;;;;;;4954122;29;20066;-75
2021/07/18 07:37:45;;;;;;;1.90;1.10;;;20.70;99.90;;;;;;4970383;28;20403;-76
2021/07/18 07:40:14;;;;;;;3.15;1.27;;;20.80;99.90;;;;;;4960826;28;20567;-76
2021/07/18 07:42:40;;;;;;;2.45;1.40;;;20.90;99.90;;;;;;4936680;29;20126;-75
2021/07/18 07:45:09;;;;;;;5.22;1.27;;;20.90;99.90;;;;;;4953450;29;20031;-75
2021/07/18 07:47:35;;;;;;;2.08;1.17;;;21.00;99.90;;;;;;4963392;28;20030;-76
2021/07/18 07:50:01;;;;;;;4.30;1.17;;;21.00;99.90;;;;;;4965868;28;20057;-76
2021/07/18 07:52:26;;;;;;;5.63;1.40;;;21.10;99.90;;;;;;4969715;28;20086;-76
2021/07/18 07:54:52;;;;;;;2.33;1.02;;;21.10;99.90;;;;;;4971726;28;20031;-76
2021/07/18 07:57:17;;;;;;;3.55;1.42;;;21.20;99.90;;;;;;4971633;28;20036;-76
2021/07/18 07:59:43;;;;;;;7.70;1.40;;;21.30;99.90;;;;;;4968257;28;20133;-77
2021/07/18 08:02:09;;;;;;;6.05;2.05;;;21.40;99.90;;;;;;4971192;28;20059;-76
2021/07/18 08:04:34;;;;;;;4.13;2.30;;;21.70;99.90;;;;;;4971227;28;20122;-76
2021/07/18 08:07:00;;;;;;;6.40;1.38;;;21.60;99.90;;;;;;4972824;28;20397;-78
2021/07/18 08:09:25;;;;;;;3.35;1.30;;;21.70;99.90;;;;;;4951205;28;20027;-76
2021/07/18 08:11:51;;;;;;;4.10;1.20;;;21.80;99.90;;;;;;4955094;28;20064;-76
2021/07/18 08:14:17;;;;;;;2.70;1.17;;;22.50;99.90;;;;;;4972960;28;20035;-77
2021/07/18 08:16:43;;;;;;;5.47;1.88;;;22.10;99.90;;;;;;4957160;28;20062;-77
2021/07/18 08:19:09;;;;;;;4.57;1.40;;;22.10;99.90;;;;;;4952833;29;20015;-77
2021/07/18 08:21:34;;;;;;;3.97;1.30;;;22.80;99.90;;;;;;4953605;29;20054;-77
2021/07/18 08:24:00;;;;;;;3.17;1.40;;;22.40;99.90;;;;;;4936291;29;20504;-76
2021/07/18 08:26:26;;;;;;;2.38;1.25;;;22.40;99.90;;;;;;4957663;28;20504;-76
2021/07/18 08:28:52;;;;;;;7.72;1.50;;;22.30;99.90;;;;;;4955575;28;20404;-76
2021/07/18 08:31:18;;;;;;;4.43;1.35;;;22.40;99.90;;;;;;4952695;28;20035;-77
2021/07/18 08:33:44;;;;;;;7.28;1.63;;;22.30;99.90;;;;;;4953352;29;20032;-76
2021/07/18 08:36:11;;;;;;;5.88;1.88;;;22.60;99.90;;;;;;4953430;28;20030;-76
2021/07/18 08:38:36;;;;;;;2.70;1.27;;;22.30;99.90;;;;;;4985876;28;20030;-76
2021/07/18 08:41:03;;;;;;;4.97;1.50;;;22.40;99.90;;;;;;4954963;28;20046;-76
2021/07/18 08:43:28;;;;;;;4.38;1.20;;;22.50;99.90;;;;;;4964419;28;20427;-77
2021/07/18 08:45:54;;;;;;;5.57;1.35;;;22.60;99.90;;;;;;4973744;28;20037;-79
2021/07/18 08:48:20;;;;;;;5.43;1.58;;;22.60;99.90;;;;;;4971298;28;20110;-77
2021/07/18 08:50:48;;;;;;;6.28;1.60;;;22.30;99.90;;;;;;4973975;28;20038;-77
2021/07/18 08:53:14;;;;;;;3.42;1.40;;;22.60;99.90;;;;;;4970807;28;20047;-77
2021/07/18 08:55:40;;;;;;;3.00;1.77;;;22.60;99.90;;;;;;4960015;29;20439;-77
2021/07/18 08:58:06;;;;;;;3.75;1.05;;;22.50;99.90;;;;;;4959154;29;20110;-78
2021/07/18 09:00:32;;;;;;;4.88;1.80;;;22.60;99.90;;;;;;4958204;29;20034;-77
2021/07/18 09:02:58;;;;;;;3.63;1.33;;;22.80;99.90;;;;;;4959179;29;20031;-77
2021/07/18 09:05:24;;;;;;;4.22;1.80;;;22.80;99.90;;;;;;4966078;28;20499;-77
2021/07/18 09:07:52;;;;;;;3.30;1.27;;;22.80;99.90;;;;;;4985171;28;20030;-77
2021/07/18 09:10:23;;;;;;;3.55;1.50;;;22.80;99.90;;;;;;4978336;28;20042;-78
2021/07/18 09:13:11;;;;;;;6.90;1.40;;;23.00;99.90;;;;;;4995296;28;20105;-76
2021/07/18 09:15:44;;;;;;;4.68;2.03;;;23.40;99.90;;;;;;4975944;28;20491;-76
2021/07/18 09:18:15;;;;;;;3.65;1.67;;;23.60;99.90;;;;;;4959380;28;20038;-76
2021/07/18 09:20:43;;;;;;;11.98;1.70;;;23.80;99.90;;;;;;4956120;29;20023;-76
2021/07/18 09:23:15;;;;;;;5.38;1.50;;;23.90;99.90;;;;;;4955181;29;20027;-76
2021/07/18 09:25:41;;;;;;;7.18;1.42;;;24.00;99.90;;;;;;4956524;29;20026;-75
2021/07/18 09:28:15;;;;;;;4.82;1.77;;;24.10;99.90;;;;;;4957678;28;20027;-76
2021/07/18 09:30:41;;;;;;;3.50;2.22;;;24.30;99.90;;;;;;4974551;28;20058;-76
2021/07/18 09:33:21;;;;;;;8.10;1.65;;;24.20;99.90;;;;;;4974335;28;20034;-77
2021/07/18 09:35:47;;;;;;;5.85;1.23;;;24.40;99.90;;;;;;4956133;28;20024;-76
2021/07/18 09:38:21;;;;;;;3.30;1.30;;;25.50;99.90;;;;;;4955911;28;20031;-77
2021/07/18 09:40:59;;;;;;;3.75;1.48;;;24.60;99.90;;;;;;4967789;28;20385;-76
2021/07/18 09:43:28;;;;;;;3.20;1.38;;;24.80;99.90;;;;;;4938361;29;20041;-76
2021/07/18 09:46:06;;;;;;;4.15;1.35;;;24.80;99.90;;;;;;4956093;29;20035;-77
2021/07/18 09:48:44;;;;;;;6.57;3.65;;;24.60;99.90;;;;;;4958239;29;20503;-77
2021/07/18 09:51:13;;;;;;;4.80;1.58;;;24.80;99.90;;;;;;4956645;29;20023;-78
2021/07/18 09:53:41;;;;;;;2.85;1.30;;;24.80;99.90;;;;;;4980681;28;20027;-77
2021/07/18 09:56:26;;;;;;;2.72;1.27;;;24.90;99.90;;;;;;4999591;23;20081;-77
2021/07/18 09:58:56;;;;;;;3.55;1.17;;;25.10;99.90;;;;;;4973486;28;20039;-76
2021/07/18 10:01:23;;;;;;;4.35;2.25;;;25.10;99.90;;;;;;4972524;28;20063;-76
2021/07/18 10:03:50;;;;;;;3.20;1.52;;;24.80;99.90;;;;;;4974842;28;20483;-77
2021/07/18 10:06:17;;;;;;;3.72;1.58;;;24.70;99.90;;;;;;4973914;28;20050;-76
2021/07/18 10:08:50;;;;;;;2.88;1.40;;;25.00;99.90;;;;;;4937833;28;20083;-76
2021/07/18 10:11:24;;;;;;;3.85;1.50;;;24.90;99.90;;;;;;4956052;28;20023;-76
2021/07/18 10:13:51;;;;;;;3.90;1.98;;;24.90;99.90;;;;;;4968199;28;20107;-76
2021/07/18 10:16:18;;;;;;;5.43;1.73;;;24.90;99.90;;;;;;4954897;29;20043;-76
2021/07/18 10:18:45;;;;;;;5.53;1.38;;;25.20;99.90;;;;;;4964866;28;20034;-76
2021/07/18 10:21:13;;;;;;;2.60;1.45;;;25.60;99.90;;;;;;4977696;28;20027;-76
2021/07/18 10:23:42;;;;;;;3.88;1.50;;;25.90;99.90;;;;;;4974057;28;20031;-77
2021/07/18 10:26:13;;;;;;;6.10;1.88;;;26.20;99.90;;;;;;4959021;29;20027;-77
2021/07/18 10:28:39;;;;;;;3.42;1.60;;;26.40;99.90;;;;;;4960533;29;20118;-76
2021/07/18 10:31:14;;;;;;;4.72;1.73;;;26.60;99.90;;;;;;4966309;28;20118;-77
2021/07/18 10:33:42;;;;;;;3.35;1.50;;;26.70;99.90;;;;;;4974361;28;20019;-77
2021/07/18 10:36:10;;;;;;;6.70;1.83;;;26.70;99.90;;;;;;4973893;28;20073;-76
2021/07/18 10:38:36;;;;;;;2.88;1.67;;;26.50;99.90;;;;;;4957320;28;20031;-76
2021/07/18 10:41:02;;;;;;;6.57;2.03;;;26.60;99.90;;;;;;4954436;29;20090;-76
2021/07/18 10:43:35;;;;;;;4.57;1.73;;;26.70;99.90;;;;;;4971514;28;20434;-77
2021/07/18 10:46:00;;;;;;;;;;;26.60;99.90;;;;;;4956843;28;20181;-76
2021/07/18 10:48:46;;;;;;;6.03;2.58;;;26.90;99.90;;;;;;4973969;28;20004;-77
2021/07/18 10:51:20;;;;;;;5.72;2.38;;;27.00;99.90;;;;;;4973504;28;20030;-76
2021/07/18 10:53:48;;;;;;;10.18;2.45;;;26.80;99.90;;;;;;4972291;28;20019;-76
2021/07/18 10:56:18;;;;;;;5.18;1.80;;;26.80;99.90;;;;;;4937555;29;20155;-76
2021/07/18 10:58:46;;;;;;;3.63;1.58;;;27.00;99.90;;;;;;4954497;29;20129;-76
2021/07/18 11:01:11;;;;;;;12.02;2.78;;;27.10;99.90;;;;;;4953829;29;20057;-76
2021/07/18 11:03:42;;;;;;;7.72;2.63;;;27.30;99.90;;;;;;4954384;29;20034;-76
2021/07/18 11:06:26;;;;;;;3.30;1.52;;;27.20;99.90;;;;;;4958075;28;20031;-76
2021/07/18 11:09:12;;;;;;;7.50;2.60;;;27.30;99.90;;;;;;4953264;28;20050;-76
2021/07/18 11:11:38;;;;;;;5.95;1.73;;;27.10;99.90;;;;;;4954078;28;20039;-76
2021/07/18 11:14:28;;;;;;;4.28;1.92;;;27.20;99.90;;;;;;4936617;28;20403;-76
2021/07/18 11:16:59;;;;;;;3.30;1.67;;;27.30;99.90;;;;;;4953840;29;20539;-76
2021/07/18 11:19:37;;;;;;;3.37;1.57;;;27.50;99.90;;;;;;4966139;28;20113;-76
2021/07/18 11:22:06;;;;;;;5.22;1.67;;;27.70;99.90;;;;;;4973492;28;20488;-76
2021/07/18 11:24:54;;;;;;;7.45;1.40;;;27.70;99.90;;;;;;4951062;28;20031;-76
2021/07/18 11:27:33;;;;;;;5.72;1.55;;;28.00;99.30;;;;;;4936479;29;20058;-76
2021/07/18 11:30:03;;;;;;;4.80;1.88;;;28.10;99.30;;;;;;4956257;28;20027;-76
2021/07/18 11:32:31;;;;;;;4.38;2.13;;;27.90;99.70;;;;;;4972738;28;20552;-76
2021/07/18 11:34:58;;;;;;;5.32;1.77;;;27.30;99.00;;;;;;4972866;28;20047;-76
2021/07/18 11:37:28;;;;;;;6.22;2.30;;;27.60;98.20;;;;;;4968377;28;20031;-76
2021/07/18 11:40:03;;;;;;;8.50;2.10;;;27.60;98.00;;;;;;4972256;28;20031;-76
2021/07/18 11:42:28;;;;;;;2.42;1.75;;;27.80;98.40;;;;;;4967381;28;20039;-76
2021/07/18 11:44:54;;;;;;;10.05;3.47;;;28.60;97.20;;;;;;4936550;29;20086;-76
2021/07/18 11:47:20;;;;;;;7.82;2.15;;;29.10;96.30;;;;;;4953386;29;20031;-76
2021/07/18 11:49:47;;;;;;;4.88;2.30;;;29.60;95.40;;;;;;4935680;29;20046;-76
2021/07/18 11:52:15;;;;;;;4.35;2.00;;;29.20;95.70;;;;;;4953579;29;20027;-76
2021/07/18 11:54:41;;;;;;;6.28;2.15;;;29.80;94.70;;;;;;4964043;28;20538;-76
2021/07/18 11:57:13;;;;;;;7.07;2.42;;;30.10;94.60;;;;;;4972676;28;20041;-76
2021/07/18 11:59:41;;;;;;;4.00;2.33;;;29.80;92.50;;;;;;4972163;28;20503;-76
2021/07/18 12:02:08;;;;;;;5.50;2.40;;;29.70;93.40;;;;;;4954948;28;20049;-76
2021/07/18 12:04:34;;;;;;;5.82;3.10;;;30.10;91.70;;;;;;4963058;28;20123;-76
2021/07/18 12:07:05;;;;;;;3.90;2.30;;;30.90;90.20;;;;;;4952620;29;20038;-76
2021/07/18 12:09:41;;;;;;;4.77;2.40;;;31.50;88.80;;;;;;4952839;29;20039;-76
2021/07/18 12:12:10;;;;;;;6.05;2.65;;;31.30;88.80;;;;;;4952840;29;20040;-76
2021/07/18 12:14:37;;;;;;;4.35;2.55;;;31.40;86.70;;;;;;4951422;28;20058;-76
2021/07/18 12:17:04;;;;;;;7.03;2.90;;;31.40;86.50;;;;;;4970477;28;20066;-77
2021/07/18 12:19:32;;;;;;;4.40;2.70;;;31.50;84.60;;;;;;4970463;28;20046;-77
2021/07/18 12:22:04;;;;;;;6.50;3.05;;;31.30;83.90;;;;;;4933819;29;20099;-76
2021/07/18 12:24:34;;;;;;;5.13;3.00;;;31.10;84.20;;;;;;4934261;29;20026;-76
2021/07/18 12:27:06;;;;;;;7.78;3.05;;;31.40;83.90;;;;;;4955005;28;20428;-76
2021/07/18 12:29:42;;;;;;;5.55;2.55;;;31.80;81.70;;;;;;4950778;28;20035;-76
2021/07/18 12:32:08;;;;;;;3.78;2.50;;;31.90;82.20;;;;;;4956926;29;20019;-77
2021/07/18 12:34:38;;;;;;;4.07;2.88;;;32.00;80.80;;;;;;4956927;28;20380;-77
2021/07/18 12:37:05;;;;;;;7.40;3.22;;;32.30;79.90;;;;;;4957111;29;20106;-77
2021/07/18 12:39:42;;;;;;;6.43;3.10;;;32.00;78.70;;;;;;4961167;28;20480;-77